sensor_id;sensor_type;location;lat;lon;timestamp;P1;durP1;ratioP1;P2;durP2;ratioP2
966;SDS011;56108;48.730;9.304;2022-12-05T00:00:39;16.25;;;12.90;;
966;SDS011;56108;48.730;9.304;2022-12-05T00:02:50;19.80;;;14.38;;
966;SDS011;56108;48.730;9.304;2022-12-05T00:04:57;16.80;;;13.07;;
966;SDS011;56108;48.730;9.304;2022-12-05T00:07:05;15.65;;;12.48;;
966;SDS011;56108;48.730;9.304;2022-12-05T00:09:14;16.75;;;13.65;;
966;SDS011;56108;48.730;9.304;2022-12-05T00:11:23;20.23;;;14.88;;
966;SDS011;56108;48.730;9.304;2022-12-05T00:13:32;18.98;;;13.02;;
966;SDS011;56108;48.730;9.304;2022-12-05T00:15:40;17.98;;;13.50;;
966;SDS011;56108;48.730;9.304;2022-12-05T00:17:50;17.65;;;13.05;;
966;SDS011;56108;48.730;9.304;2022-12-05T00:19:58;17.95;;;13.52;;
966;SDS011;56108;48.730;9.304;2022-12-05T00:22:07;16.95;;;13.50;;
966;SDS011;56108;48.730;9.304;2022-12-05T00:24:15;17.42;;;14.20;;
966;SDS011;56108;48.730;9.304;2022-12-05T00:26:24;16.92;;;13.23;;
966;SDS011;56108;48.730;9.304;2022-12-05T00:28:33;17.60;;;14.30;;
966;SDS011;56108;48.730;9.304;2022-12-05T00:30:41;18.15;;;13.13;;
966;SDS011;56108;48.730;9.304;2022-12-05T00:32:52;16.88;;;13.80;;
966;SDS011;56108;48.730;9.304;2022-12-05T00:35:00;19.95;;;14.40;;
966;SDS011;56108;48.730;9.304;2022-12-05T00:37:09;19.73;;;14.13;;
966;SDS011;56108;48.730;9.304;2022-12-05T00:39:17;16.90;;;14.07;;
966;SDS011;56108;48.730;9.304;2022-12-05T00:41:26;16.40;;;13.70;;
966;SDS011;56108;48.730;9.304;2022-12-05T00:43:35;17.23;;;14.02;;
966;SDS011;56108;48.730;9.304;2022-12-05T00:45:43;18.15;;;15.30;;
966;SDS011;56108;48.730;9.304;2022-12-05T00:47:54;19.48;;;15.05;;
966;SDS011;56108;48.730;9.304;2022-12-05T00:50:02;18.35;;;13.50;;
966;SDS011;56108;48.730;9.304;2022-12-05T00:52:10;17.92;;;13.52;;
966;SDS011;56108;48.730;9.304;2022-12-05T00:54:18;16.67;;;12.90;;
966;SDS011;56108;48.730;9.304;2022-12-05T00:56:28;14.52;;;12.43;;
966;SDS011;56108;48.730;9.304;2022-12-05T00:58:36;15.82;;;12.98;;
966;SDS011;56108;48.730;9.304;2022-12-05T01:00:46;17.67;;;13.93;;
966;SDS011;56108;48.730;9.304;2022-12-05T01:02:56;17.95;;;14.27;;
966;SDS011;56108;48.730;9.304;2022-12-05T01:05:06;17.75;;;14.20;;
966;SDS011;56108;48.730;9.304;2022-12-05T01:07:14;16.55;;;12.27;;
966;SDS011;56108;48.730;9.304;2022-12-05T01:09:22;18.30;;;13.73;;
966;SDS011;56108;48.730;9.304;2022-12-05T01:11:31;16.05;;;13.95;;
966;SDS011;56108;48.730;9.304;2022-12-05T01:13:44;18.42;;;13.73;;
966;SDS011;56108;48.730;9.304;2022-12-05T01:15:53;17.58;;;12.68;;
966;SDS011;56108;48.730;9.304;2022-12-05T01:18:04;20.17;;;14.10;;
966;SDS011;56108;48.730;9.304;2022-12-05T01:20:12;17.90;;;13.90;;
966;SDS011;56108;48.730;9.304;2022-12-05T01:22:20;17.20;;;12.52;;
966;SDS011;56108;48.730;9.304;2022-12-05T01:24:29;16.77;;;12.70;;
966;SDS011;56108;48.730;9.304;2022-12-05T01:26:37;19.15;;;13.80;;
966;SDS011;56108;48.730;9.304;2022-12-05T01:28:46;17.95;;;13.70;;
966;SDS011;56108;48.730;9.304;2022-12-05T01:30:55;17.60;;;13.13;;
966;SDS011;56108;48.730;9.304;2022-12-05T01:33:05;17.25;;;12.30;;
966;SDS011;56108;48.730;9.304;2022-12-05T01:35:14;17.45;;;12.98;;
966;SDS011;56108;48.730;9.304;2022-12-05T01:37:22;17.02;;;13.10;;
966;SDS011;56108;48.730;9.304;2022-12-05T01:39:30;17.98;;;12.80;;
966;SDS011;56108;48.730;9.304;2022-12-05T01:41:39;16.85;;;13.32;;
966;SDS011;56108;48.730;9.304;2022-12-05T01:43:53;16.48;;;12.45;;
966;SDS011;56108;48.730;9.304;2022-12-05T01:46:03;13.52;;;10.82;;
966;SDS011;56108;48.730;9.304;2022-12-05T01:48:17;14.35;;;11.25;;
966;SDS011;56108;48.730;9.304;2022-12-05T01:50:29;16.52;;;12.48;;
966;SDS011;56108;48.730;9.304;2022-12-05T01:52:38;15.85;;;12.55;;
966;SDS011;56108;48.730;9.304;2022-12-05T01:54:47;15.93;;;12.63;;
966;SDS011;56108;48.730;9.304;2022-12-05T01:56:58;17.25;;;12.73;;
966;SDS011;56108;48.730;9.304;2022-12-05T01:59:09;16.83;;;12.73;;
966;SDS011;56108;48.730;9.304;2022-12-05T02:01:19;19.65;;;13.10;;
966;SDS011;56108;48.730;9.304;2022-12-05T02:03:30;16.55;;;13.60;;
966;SDS011;56108;48.730;9.304;2022-12-05T02:05:38;17.85;;;13.45;;
966;SDS011;56108;48.730;9.304;2022-12-05T02:07:46;18.15;;;13.35;;
966;SDS011;56108;48.730;9.304;2022-12-05T02:09:54;21.85;;;14.40;;
966;SDS011;56108;48.730;9.304;2022-12-05T02:12:02;15.82;;;12.48;;
966;SDS011;56108;48.730;9.304;2022-12-05T02:14:15;18.08;;;12.80;;
966;SDS011;56108;48.730;9.304;2022-12-05T02:16:34;20.73;;;13.10;;
966;SDS011;56108;48.730;9.304;2022-12-05T02:18:55;19.40;;;13.75;;
966;SDS011;56108;48.730;9.304;2022-12-05T02:23:59;19.58;;;13.55;;
966;SDS011;56108;48.730;9.304;2022-12-05T02:26:27;21.58;;;14.07;;
966;SDS011;56108;48.730;9.304;2022-12-05T02:31:42;18.52;;;14.55;;
966;SDS011;56108;48.730;9.304;2022-12-05T02:33:57;21.80;;;14.77;;
966;SDS011;56108;48.730;9.304;2022-12-05T02:36:15;18.83;;;15.57;;
966;SDS011;56108;48.730;9.304;2022-12-05T02:38:30;20.98;;;14.00;;
966;SDS011;56108;48.730;9.304;2022-12-05T02:40:46;20.55;;;14.50;;
966;SDS011;56108;48.730;9.304;2022-12-05T02:43:00;19.30;;;14.52;;
966;SDS011;56108;48.730;9.304;2022-12-05T02:45:13;22.73;;;16.77;;
966;SDS011;56108;48.730;9.304;2022-12-05T02:47:26;21.38;;;13.57;;
966;SDS011;56108;48.730;9.304;2022-12-05T02:49:38;19.60;;;14.93;;
966;SDS011;56108;48.730;9.304;2022-12-05T02:51:50;20.60;;;16.67;;
966;SDS011;56108;48.730;9.304;2022-12-05T02:54:03;20.52;;;15.15;;
966;SDS011;56108;48.730;9.304;2022-12-05T02:56:15;17.60;;;12.88;;
966;SDS011;56108;48.730;9.304;2022-12-05T02:58:33;20.23;;;15.45;;
966;SDS011;56108;48.730;9.304;2022-12-05T03:00:46;25.80;;;16.17;;
966;SDS011;56108;48.730;9.304;2022-12-05T03:02:59;19.77;;;14.55;;
966;SDS011;56108;48.730;9.304;2022-12-05T03:05:09;21.13;;;14.90;;
966;SDS011;56108;48.730;9.304;2022-12-05T03:07:27;24.10;;;14.63;;
966;SDS011;56108;48.730;9.304;2022-12-05T03:09:39;20.40;;;13.93;;
966;SDS011;56108;48.730;9.304;2022-12-05T03:11:53;21.20;;;14.45;;
966;SDS011;56108;48.730;9.304;2022-12-05T03:14:05;18.90;;;13.85;;
966;SDS011;56108;48.730;9.304;2022-12-05T03:16:19;22.10;;;15.52;;
966;SDS011;56108;48.730;9.304;2022-12-05T03:18:35;22.42;;;14.73;;
966;SDS011;56108;48.730;9.304;2022-12-05T03:20:47;20.42;;;14.40;;
966;SDS011;56108;48.730;9.304;2022-12-05T03:22:59;22.20;;;15.95;;
966;SDS011;56108;48.730;9.304;2022-12-05T03:25:12;20.02;;;13.80;;
966;SDS011;56108;48.730;9.304;2022-12-05T03:27:23;26.92;;;15.95;;
966;SDS011;56108;48.730;9.304;2022-12-05T03:29:35;20.60;;;14.55;;
966;SDS011;56108;48.730;9.304;2022-12-05T03:31:51;23.00;;;15.88;;
966;SDS011;56108;48.730;9.304;2022-12-05T03:34:08;20.25;;;13.65;;
966;SDS011;56108;48.730;9.304;2022-12-05T03:36:21;22.38;;;14.70;;
966;SDS011;56108;48.730;9.304;2022-12-05T03:38:36;20.88;;;14.65;;
966;SDS011;56108;48.730;9.304;2022-12-05T03:40:52;21.40;;;14.88;;
966;SDS011;56108;48.730;9.304;2022-12-05T03:43:05;21.42;;;14.70;;
966;SDS011;56108;48.730;9.304;2022-12-05T03:45:19;18.67;;;13.88;;
966;SDS011;56108;48.730;9.304;2022-12-05T03:47:36;21.92;;;14.10;;
966;SDS011;56108;48.730;9.304;2022-12-05T03:49:51;20.75;;;15.30;;
966;SDS011;56108;48.730;9.304;2022-12-05T03:52:06;18.05;;;13.18;;
966;SDS011;56108;48.730;9.304;2022-12-05T03:54:20;19.30;;;14.85;;
966;SDS011;56108;48.730;9.304;2022-12-05T03:56:33;21.60;;;15.38;;
966;SDS011;56108;48.730;9.304;2022-12-05T03:58:46;22.85;;;15.77;;
966;SDS011;56108;48.730;9.304;2022-12-05T04:00:59;24.45;;;15.63;;
966;SDS011;56108;48.730;9.304;2022-12-05T04:03:11;22.95;;;15.48;;
966;SDS011;56108;48.730;9.304;2022-12-05T04:05:26;23.83;;;14.77;;
966;SDS011;56108;48.730;9.304;2022-12-05T04:07:37;21.23;;;15.23;;
966;SDS011;56108;48.730;9.304;2022-12-05T04:09:48;20.77;;;14.38;;
966;SDS011;56108;48.730;9.304;2022-12-05T04:12:03;25.70;;;16.27;;
966;SDS011;56108;48.730;9.304;2022-12-05T04:14:16;17.90;;;13.05;;
966;SDS011;56108;48.730;9.304;2022-12-05T04:16:29;24.55;;;14.90;;
966;SDS011;56108;48.730;9.304;2022-12-05T04:18:56;21.67;;;14.63;;
966;SDS011;56108;48.730;9.304;2022-12-05T04:21:10;19.25;;;13.48;;
966;SDS011;56108;48.730;9.304;2022-12-05T04:23:31;20.63;;;14.10;;
966;SDS011;56108;48.730;9.304;2022-12-05T04:25:43;20.65;;;14.88;;
966;SDS011;56108;48.730;9.304;2022-12-05T04:27:56;23.10;;;15.20;;
966;SDS011;56108;48.730;9.304;2022-12-05T04:30:13;20.80;;;13.80;;
966;SDS011;56108;48.730;9.304;2022-12-05T04:32:25;22.63;;;15.88;;
966;SDS011;56108;48.730;9.304;2022-12-05T04:34:39;22.33;;;15.73;;
966;SDS011;56108;48.730;9.304;2022-12-05T04:36:53;21.17;;;15.70;;
966;SDS011;56108;48.730;9.304;2022-12-05T04:39:06;23.17;;;14.65;;
966;SDS011;56108;48.730;9.304;2022-12-05T04:41:23;21.55;;;15.57;;
966;SDS011;56108;48.730;9.304;2022-12-05T04:43:35;19.17;;;14.73;;
966;SDS011;56108;48.730;9.304;2022-12-05T04:45:47;22.65;;;13.80;;
966;SDS011;56108;48.730;9.304;2022-12-05T04:47:58;24.77;;;15.77;;
966;SDS011;56108;48.730;9.304;2022-12-05T04:50:10;19.90;;;14.82;;
966;SDS011;56108;48.730;9.304;2022-12-05T04:52:24;21.08;;;15.20;;
966;SDS011;56108;48.730;9.304;2022-12-05T04:54:33;24.63;;;16.88;;
966;SDS011;56108;48.730;9.304;2022-12-05T04:56:45;23.38;;;15.85;;
966;SDS011;56108;48.730;9.304;2022-12-05T04:59:04;20.20;;;14.18;;
966;SDS011;56108;48.730;9.304;2022-12-05T05:01:13;24.90;;;15.38;;
966;SDS011;56108;48.730;9.304;2022-12-05T05:03:29;24.25;;;15.55;;
966;SDS011;56108;48.730;9.304;2022-12-05T05:05:43;21.60;;;14.50;;
966;SDS011;56108;48.730;9.304;2022-12-05T05:07:56;21.70;;;15.40;;
966;SDS011;56108;48.730;9.304;2022-12-05T05:10:05;20.55;;;14.75;;
966;SDS011;56108;48.730;9.304;2022-12-05T05:12:15;22.08;;;15.27;;
966;SDS011;56108;48.730;9.304;2022-12-05T05:14:23;22.50;;;16.33;;
966;SDS011;56108;48.730;9.304;2022-12-05T05:16:31;22.90;;;15.20;;
966;SDS011;56108;48.730;9.304;2022-12-05T05:18:41;21.50;;;15.85;;
966;SDS011;56108;48.730;9.304;2022-12-05T05:20:49;22.83;;;15.70;;
966;SDS011;56108;48.730;9.304;2022-12-05T05:23:00;22.20;;;14.68;;
966;SDS011;56108;48.730;9.304;2022-12-05T05:25:09;18.25;;;14.30;;
966;SDS011;56108;48.730;9.304;2022-12-05T05:27:18;23.27;;;14.88;;
966;SDS011;56108;48.730;9.304;2022-12-05T05:29:25;22.00;;;15.75;;
966;SDS011;56108;48.730;9.304;2022-12-05T05:31:33;18.42;;;14.95;;
966;SDS011;56108;48.730;9.304;2022-12-05T05:33:43;24.35;;;16.98;;
966;SDS011;56108;48.730;9.304;2022-12-05T05:35:54;20.17;;;14.60;;
966;SDS011;56108;48.730;9.304;2022-12-05T05:38:05;20.17;;;15.75;;
966;SDS011;56108;48.730;9.304;2022-12-05T05:40:13;22.83;;;15.90;;
966;SDS011;56108;48.730;9.304;2022-12-05T05:42:21;25.88;;;16.73;;
966;SDS011;56108;48.730;9.304;2022-12-05T05:44:28;23.95;;;17.27;;
966;SDS011;56108;48.730;9.304;2022-12-05T05:46:36;20.95;;;14.23;;
966;SDS011;56108;48.730;9.304;2022-12-05T05:48:45;25.30;;;16.75;;
966;SDS011;56108;48.730;9.304;2022-12-05T05:50:53;30.20;;;16.83;;
966;SDS011;56108;48.730;9.304;2022-12-05T05:53:01;22.30;;;15.00;;
966;SDS011;56108;48.730;9.304;2022-12-05T05:55:13;19.00;;;14.52;;
966;SDS011;56108;48.730;9.304;2022-12-05T05:57:21;19.85;;;13.95;;
966;SDS011;56108;48.730;9.304;2022-12-05T05:59:30;19.23;;;14.38;;
966;SDS011;56108;48.730;9.304;2022-12-05T06:01:38;18.25;;;14.43;;
966;SDS011;56108;48.730;9.304;2022-12-05T06:03:47;19.73;;;15.13;;
966;SDS011;56108;48.730;9.304;2022-12-05T06:05:56;16.00;;;14.02;;
966;SDS011;56108;48.730;9.304;2022-12-05T06:08:05;23.45;;;15.98;;
966;SDS011;56108;48.730;9.304;2022-12-05T06:10:15;19.70;;;15.98;;
966;SDS011;56108;48.730;9.304;2022-12-05T06:12:23;22.67;;;14.70;;
966;SDS011;56108;48.730;9.304;2022-12-05T06:14:31;22.40;;;15.68;;
966;SDS011;56108;48.730;9.304;2022-12-05T06:16:39;19.30;;;14.85;;
966;SDS011;56108;48.730;9.304;2022-12-05T06:18:48;18.17;;;14.63;;
966;SDS011;56108;48.730;9.304;2022-12-05T06:20:57;19.40;;;15.02;;
966;SDS011;56108;48.730;9.304;2022-12-05T06:23:05;22.75;;;15.80;;
966;SDS011;56108;48.730;9.304;2022-12-05T06:25:16;21.02;;;15.88;;
966;SDS011;56108;48.730;9.304;2022-12-05T06:27:24;18.55;;;15.02;;
966;SDS011;56108;48.730;9.304;2022-12-05T06:29:32;19.90;;;14.45;;
966;SDS011;56108;48.730;9.304;2022-12-05T06:31:40;21.70;;;14.10;;
966;SDS011;56108;48.730;9.304;2022-12-05T06:33:49;20.48;;;14.90;;
966;SDS011;56108;48.730;9.304;2022-12-05T06:36:00;19.48;;;14.60;;
966;SDS011;56108;48.730;9.304;2022-12-05T06:38:10;20.20;;;15.52;;
966;SDS011;56108;48.730;9.304;2022-12-05T06:40:21;22.73;;;15.80;;
966;SDS011;56108;48.730;9.304;2022-12-05T06:42:30;19.63;;;14.15;;
966;SDS011;56108;48.730;9.304;2022-12-05T06:44:38;21.60;;;16.13;;
966;SDS011;56108;48.730;9.304;2022-12-05T06:46:46;18.27;;;14.45;;
966;SDS011;56108;48.730;9.304;2022-12-05T06:48:54;23.73;;;16.35;;
966;SDS011;56108;48.730;9.304;2022-12-05T06:51:03;23.35;;;15.75;;
966;SDS011;56108;48.730;9.304;2022-12-05T06:53:15;19.98;;;14.95;;
966;SDS011;56108;48.730;9.304;2022-12-05T06:55:26;27.50;;;15.82;;
966;SDS011;56108;48.730;9.304;2022-12-05T06:57:34;21.45;;;15.63;;
966;SDS011;56108;48.730;9.304;2022-12-05T06:59:42;21.58;;;15.10;;
966;SDS011;56108;48.730;9.304;2022-12-05T07:01:50;21.17;;;15.98;;
966;SDS011;56108;48.730;9.304;2022-12-05T07:03:55;21.45;;;16.02;;
966;SDS011;56108;48.730;9.304;2022-12-05T07:06:05;21.55;;;15.43;;
966;SDS011;56108;48.730;9.304;2022-12-05T07:08:15;21.05;;;14.30;;
966;SDS011;56108;48.730;9.304;2022-12-05T07:10:27;21.48;;;14.50;;
966;SDS011;56108;48.730;9.304;2022-12-05T07:12:36;24.00;;;16.90;;
966;SDS011;56108;48.730;9.304;2022-12-05T07:14:44;22.50;;;15.82;;
966;SDS011;56108;48.730;9.304;2022-12-05T07:16:53;18.23;;;14.55;;
966;SDS011;56108;48.730;9.304;2022-12-05T07:19:02;25.35;;;15.95;;
966;SDS011;56108;48.730;9.304;2022-12-05T07:21:11;24.20;;;16.08;;
966;SDS011;56108;48.730;9.304;2022-12-05T07:23:20;20.00;;;16.40;;
966;SDS011;56108;48.730;9.304;2022-12-05T07:25:31;19.20;;;15.40;;
966;SDS011;56108;48.730;9.304;2022-12-05T07:27:39;21.23;;;15.30;;
966;SDS011;56108;48.730;9.304;2022-12-05T07:29:47;21.30;;;15.98;;
966;SDS011;56108;48.730;9.304;2022-12-05T07:31:56;23.95;;;16.25;;
966;SDS011;56108;48.730;9.304;2022-12-05T07:34:04;21.95;;;15.68;;
966;SDS011;56108;48.730;9.304;2022-12-05T07:36:12;21.40;;;14.60;;
966;SDS011;56108;48.730;9.304;2022-12-05T07:38:21;21.00;;;14.93;;
966;SDS011;56108;48.730;9.304;2022-12-05T07:40:32;20.90;;;14.45;;
966;SDS011;56108;48.730;9.304;2022-12-05T07:42:40;21.70;;;15.52;;
966;SDS011;56108;48.730;9.304;2022-12-05T07:44:48;21.45;;;16.65;;
966;SDS011;56108;48.730;9.304;2022-12-05T07:46:56;18.00;;;14.60;;
966;SDS011;56108;48.730;9.304;2022-12-05T07:49:04;18.88;;;15.00;;
966;SDS011;56108;48.730;9.304;2022-12-05T07:51:12;21.52;;;16.55;;
966;SDS011;56108;48.730;9.304;2022-12-05T07:53:20;19.63;;;15.02;;
966;SDS011;56108;48.730;9.304;2022-12-05T07:55:28;18.92;;;15.05;;
966;SDS011;56108;48.730;9.304;2022-12-05T07:57:39;21.63;;;14.90;;
966;SDS011;56108;48.730;9.304;2022-12-05T07:59:47;18.13;;;14.48;;
966;SDS011;56108;48.730;9.304;2022-12-05T08:01:56;18.85;;;14.48;;
966;SDS011;56108;48.730;9.304;2022-12-05T08:04:04;18.02;;;13.60;;
966;SDS011;56108;48.730;9.304;2022-12-05T08:06:19;18.60;;;14.38;;
966;SDS011;56108;48.730;9.304;2022-12-05T08:08:28;18.60;;;14.32;;
966;SDS011;56108;48.730;9.304;2022-12-05T08:10:39;22.35;;;14.73;;
966;SDS011;56108;48.730;9.304;2022-12-05T08:12:47;20.73;;;14.77;;
966;SDS011;56108;48.730;9.304;2022-12-05T08:14:56;18.80;;;13.02;;
966;SDS011;56108;48.730;9.304;2022-12-05T08:17:04;17.48;;;13.95;;
966;SDS011;56108;48.730;9.304;2022-12-05T08:19:12;18.30;;;13.70;;
966;SDS011;56108;48.730;9.304;2022-12-05T08:21:21;16.98;;;13.65;;
966;SDS011;56108;48.730;9.304;2022-12-05T08:23:29;17.70;;;14.13;;
966;SDS011;56108;48.730;9.304;2022-12-05T08:25:41;17.42;;;13.70;;
966;SDS011;56108;48.730;9.304;2022-12-05T08:27:49;15.50;;;13.18;;
966;SDS011;56108;48.730;9.304;2022-12-05T08:29:56;16.90;;;13.75;;
966;SDS011;56108;48.730;9.304;2022-12-05T08:32:04;22.30;;;13.98;;
966;SDS011;56108;48.730;9.304;2022-12-05T08:34:14;17.05;;;13.55;;
966;SDS011;56108;48.730;9.304;2022-12-05T08:36:23;21.95;;;14.15;;
966;SDS011;56108;48.730;9.304;2022-12-05T08:38:32;18.92;;;14.60;;
966;SDS011;56108;48.730;9.304;2022-12-05T08:40:44;18.90;;;13.63;;
966;SDS011;56108;48.730;9.304;2022-12-05T08:42:52;18.73;;;14.18;;
966;SDS011;56108;48.730;9.304;2022-12-05T08:45:03;18.10;;;13.95;;
966;SDS011;56108;48.730;9.304;2022-12-05T08:47:12;16.95;;;13.25;;
966;SDS011;56108;48.730;9.304;2022-12-05T08:49:22;16.00;;;13.10;;
966;SDS011;56108;48.730;9.304;2022-12-05T08:51:35;16.60;;;13.82;;
966;SDS011;56108;48.730;9.304;2022-12-05T08:53:44;14.80;;;13.07;;
966;SDS011;56108;48.730;9.304;2022-12-05T08:55:55;16.52;;;12.68;;
966;SDS011;56108;48.730;9.304;2022-12-05T08:58:07;13.75;;;11.60;;
966;SDS011;56108;48.730;9.304;2022-12-05T09:00:15;11.70;;;10.40;;
966;SDS011;56108;48.730;9.304;2022-12-05T09:02:24;21.70;;;13.63;;
966;SDS011;56108;48.730;9.304;2022-12-05T09:04:32;19.70;;;13.88;;
966;SDS011;56108;48.730;9.304;2022-12-05T09:06:40;17.08;;;13.50;;
966;SDS011;56108;48.730;9.304;2022-12-05T09:08:50;16.48;;;13.18;;
966;SDS011;56108;48.730;9.304;2022-12-05T09:11:06;15.95;;;12.25;;
966;SDS011;56108;48.730;9.304;2022-12-05T09:13:14;14.75;;;13.15;;
966;SDS011;56108;48.730;9.304;2022-12-05T09:15:22;13.63;;;12.07;;
966;SDS011;56108;48.730;9.304;2022-12-05T09:17:30;14.98;;;11.60;;
966;SDS011;56108;48.730;9.304;2022-12-05T09:19:39;14.60;;;11.45;;
966;SDS011;56108;48.730;9.304;2022-12-05T09:21:48;12.63;;;11.32;;
966;SDS011;56108;48.730;9.304;2022-12-05T09:23:56;13.13;;;11.38;;
966;SDS011;56108;48.730;9.304;2022-12-05T09:26:09;11.93;;;10.65;;
966;SDS011;56108;48.730;9.304;2022-12-05T09:28:18;17.33;;;11.75;;
966;SDS011;56108;48.730;9.304;2022-12-05T09:30:27;15.68;;;12.35;;
966;SDS011;56108;48.730;9.304;2022-12-05T09:32:35;10.82;;;9.70;;
966;SDS011;56108;48.730;9.304;2022-12-05T09:34:43;16.30;;;11.45;;
966;SDS011;56108;48.730;9.304;2022-12-05T09:36:51;16.63;;;11.23;;
966;SDS011;56108;48.730;9.304;2022-12-05T09:39:21;12.23;;;10.70;;
966;SDS011;56108;48.730;9.304;2022-12-05T09:44:25;14.50;;;10.82;;
966;SDS011;56108;48.730;9.304;2022-12-05T09:46:47;13.10;;;10.90;;
966;SDS011;56108;48.730;9.304;2022-12-05T09:49:01;12.48;;;10.18;;
966;SDS011;56108;48.730;9.304;2022-12-05T09:51:10;11.10;;;9.77;;
966;SDS011;56108;48.730;9.304;2022-12-05T09:53:23;11.00;;;9.73;;
966;SDS011;56108;48.730;9.304;2022-12-05T09:55:43;11.35;;;10.20;;
966;SDS011;56108;48.730;9.304;2022-12-05T09:57:53;13.63;;;10.60;;
966;SDS011;56108;48.730;9.304;2022-12-05T10:00:08;13.52;;;9.88;;
966;SDS011;56108;48.730;9.304;2022-12-05T10:02:22;15.65;;;11.88;;
966;SDS011;56108;48.730;9.304;2022-12-05T10:04:45;12.43;;;11.13;;
966;SDS011;56108;48.730;9.304;2022-12-05T10:07:06;16.50;;;11.20;;
966;SDS011;56108;48.730;9.304;2022-12-05T10:09:31;13.73;;;11.98;;
966;SDS011;56108;48.730;9.304;2022-12-05T10:11:56;17.00;;;12.60;;
966;SDS011;56108;48.730;9.304;2022-12-05T10:14:10;16.55;;;12.48;;
966;SDS011;56108;48.730;9.304;2022-12-05T10:16:28;13.50;;;11.82;;
966;SDS011;56108;48.730;9.304;2022-12-05T10:18:45;15.10;;;12.98;;
966;SDS011;56108;48.730;9.304;2022-12-05T10:21:01;14.02;;;10.65;;
966;SDS011;56108;48.730;9.304;2022-12-05T10:26:03;13.75;;;11.50;;
966;SDS011;56108;48.730;9.304;2022-12-05T10:28:25;14.77;;;12.43;;
966;SDS011;56108;48.730;9.304;2022-12-05T10:30:38;13.38;;;11.25;;
966;SDS011;56108;48.730;9.304;2022-12-05T10:32:52;14.35;;;11.23;;
966;SDS011;56108;48.730;9.304;2022-12-05T10:35:08;14.45;;;12.95;;
966;SDS011;56108;48.730;9.304;2022-12-05T10:37:24;13.63;;;12.20;;
966;SDS011;56108;48.730;9.304;2022-12-05T10:39:34;14.57;;;13.02;;
966;SDS011;56108;48.730;9.304;2022-12-05T10:41:44;14.30;;;12.77;;
966;SDS011;56108;48.730;9.304;2022-12-05T10:43:52;15.13;;;11.63;;
966;SDS011;56108;48.730;9.304;2022-12-05T10:45:59;13.15;;;11.40;;
966;SDS011;56108;48.730;9.304;2022-12-05T10:48:15;11.75;;;10.55;;
966;SDS011;56108;48.730;9.304;2022-12-05T10:50:27;11.90;;;10.18;;
966;SDS011;56108;48.730;9.304;2022-12-05T10:52:39;10.65;;;9.55;;
966;SDS011;56108;48.730;9.304;2022-12-05T10:54:48;12.85;;;10.75;;
966;SDS011;56108;48.730;9.304;2022-12-05T10:57:03;12.95;;;10.85;;
966;SDS011;56108;48.730;9.304;2022-12-05T10:59:43;14.25;;;11.27;;
966;SDS011;56108;48.730;9.304;2022-12-05T11:01:53;12.52;;;10.20;;
966;SDS011;56108;48.730;9.304;2022-12-05T11:04:09;11.65;;;9.32;;
966;SDS011;56108;48.730;9.304;2022-12-05T11:06:27;12.18;;;9.32;;
966;SDS011;56108;48.730;9.304;2022-12-05T11:08:37;12.40;;;10.18;;
966;SDS011;56108;48.730;9.304;2022-12-05T11:11:06;10.52;;;9.23;;
966;SDS011;56108;48.730;9.304;2022-12-05T11:13:24;13.15;;;9.75;;
966;SDS011;56108;48.730;9.304;2022-12-05T11:15:33;13.15;;;10.63;;
966;SDS011;56108;48.730;9.304;2022-12-05T11:18:00;13.75;;;11.10;;
966;SDS011;56108;48.730;9.304;2022-12-05T11:20:38;12.95;;;10.50;;
966;SDS011;56108;48.730;9.304;2022-12-05T11:22:47;12.98;;;11.38;;
966;SDS011;56108;48.730;9.304;2022-12-05T11:24:57;13.75;;;10.55;;
966;SDS011;56108;48.730;9.304;2022-12-05T11:27:18;13.05;;;10.40;;
966;SDS011;56108;48.730;9.304;2022-12-05T11:29:33;13.25;;;10.48;;
966;SDS011;56108;48.730;9.304;2022-12-05T11:31:42;12.70;;;11.07;;
966;SDS011;56108;48.730;9.304;2022-12-05T11:33:59;12.80;;;11.10;;
966;SDS011;56108;48.730;9.304;2022-12-05T11:36:13;14.48;;;11.57;;
966;SDS011;56108;48.730;9.304;2022-12-05T11:38:26;13.93;;;11.20;;
966;SDS011;56108;48.730;9.304;2022-12-05T11:40:36;18.65;;;11.25;;
966;SDS011;56108;48.730;9.304;2022-12-05T11:43:06;14.15;;;11.45;;
966;SDS011;56108;48.730;9.304;2022-12-05T11:45:24;13.77;;;10.38;;
966;SDS011;56108;48.730;9.304;2022-12-05T11:47:55;14.55;;;11.43;;
966;SDS011;56108;48.730;9.304;2022-12-05T11:50:18;15.07;;;13.05;;
966;SDS011;56108;48.730;9.304;2022-12-05T11:52:41;12.48;;;11.18;;
966;SDS011;56108;48.730;9.304;2022-12-05T11:55:04;15.30;;;13.48;;
966;SDS011;56108;48.730;9.304;2022-12-05T11:57:25;15.48;;;11.73;;
966;SDS011;56108;48.730;9.304;2022-12-05T11:59:50;13.40;;;12.00;;
966;SDS011;56108;48.730;9.304;2022-12-05T12:02:38;13.65;;;12.18;;
966;SDS011;56108;48.730;9.304;2022-12-05T12:05:01;14.38;;;12.65;;
966;SDS011;56108;48.730;9.304;2022-12-05T12:07:33;16.63;;;12.50;;
966;SDS011;56108;48.730;9.304;2022-12-05T12:09:56;12.00;;;10.75;;
966;SDS011;56108;48.730;9.304;2022-12-05T12:12:16;13.57;;;11.10;;
966;SDS011;56108;48.730;9.304;2022-12-05T12:14:33;19.45;;;12.85;;
966;SDS011;56108;48.730;9.304;2022-12-05T12:16:52;13.15;;;11.82;;
966;SDS011;56108;48.730;9.304;2022-12-05T12:19:15;14.95;;;13.35;;
966;SDS011;56108;48.730;9.304;2022-12-05T12:21:40;14.80;;;11.73;;
966;SDS011;56108;48.730;9.304;2022-12-05T12:24:04;9.55;;;8.65;;
966;SDS011;56108;48.730;9.304;2022-12-05T12:26:24;8.80;;;7.88;;
966;SDS011;56108;48.730;9.304;2022-12-05T12:28:42;8.85;;;7.90;;
966;SDS011;56108;48.730;9.304;2022-12-05T12:31:05;8.75;;;7.95;;
966;SDS011;56108;48.730;9.304;2022-12-05T12:33:28;7.35;;;6.43;;
966;SDS011;56108;48.730;9.304;2022-12-05T12:35:42;5.63;;;5.13;;
966;SDS011;56108;48.730;9.304;2022-12-05T12:38:07;5.07;;;4.68;;
966;SDS011;56108;48.730;9.304;2022-12-05T12:40:31;5.93;;;4.63;;
966;SDS011;56108;48.730;9.304;2022-12-05T12:42:48;4.80;;;4.40;;
966;SDS011;56108;48.730;9.304;2022-12-05T12:45:14;4.70;;;4.25;;
966;SDS011;56108;48.730;9.304;2022-12-05T12:47:36;4.63;;;4.22;;
966;SDS011;56108;48.730;9.304;2022-12-05T12:49:55;5.97;;;4.25;;
966;SDS011;56108;48.730;9.304;2022-12-05T12:52:10;5.45;;;4.70;;
966;SDS011;56108;48.730;9.304;2022-12-05T12:54:24;4.78;;;4.38;;
966;SDS011;56108;48.730;9.304;2022-12-05T12:57:10;4.00;;;3.67;;
966;SDS011;56108;48.730;9.304;2022-12-05T12:59:43;6.70;;;4.53;;
966;SDS011;56108;48.730;9.304;2022-12-05T13:02:01;5.15;;;4.68;;
966;SDS011;56108;48.730;9.304;2022-12-05T13:04:18;4.45;;;4.05;;
966;SDS011;56108;48.730;9.304;2022-12-05T13:06:33;4.80;;;4.40;;
966;SDS011;56108;48.730;9.304;2022-12-05T13:08:49;4.60;;;4.18;;
966;SDS011;56108;48.730;9.304;2022-12-05T13:11:02;4.85;;;4.45;;
966;SDS011;56108;48.730;9.304;2022-12-05T13:13:18;4.22;;;3.92;;
966;SDS011;56108;48.730;9.304;2022-12-05T13:15:30;5.25;;;4.75;;
966;SDS011;56108;48.730;9.304;2022-12-05T13:17:44;5.00;;;4.57;;
966;SDS011;56108;48.730;9.304;2022-12-05T13:19:55;6.88;;;4.07;;
966;SDS011;56108;48.730;9.304;2022-12-05T13:22:04;4.95;;;4.53;;
966;SDS011;56108;48.730;9.304;2022-12-05T13:24:13;4.35;;;3.95;;
966;SDS011;56108;48.730;9.304;2022-12-05T13:26:25;4.32;;;3.92;;
966;SDS011;56108;48.730;9.304;2022-12-05T13:28:37;5.80;;;4.05;;
966;SDS011;56108;48.730;9.304;2022-12-05T13:30:49;4.95;;;4.60;;
966;SDS011;56108;48.730;9.304;2022-12-05T13:33:19;4.65;;;4.18;;